Time;durP1;ratioP1;P1;durP2;ratioP2;P2;SDS_P1;SDS_P2;PMS_P1;PMS_P2;Temp;Humidity;BMP_temperature;BMP_pressure;BME280_temperature;BME280_humidity;BME280_pressure;Samples;Min_cycle;Max_cycle;Signal;HPM_P1;HPM_P2
2023/04/20 00:01:01;;;;;;;15.90;12.77;;;;;;;9.18;100.00;92760.88;5074591;28;20044;-74
2023/04/20 00:03:28;;;;;;;16.40;12.00;;;;;;;9.14;100.00;92755.38;5078774;28;20049;-74
2023/04/20 00:05:54;;;;;;;12.95;11.18;;;;;;;9.12;100.00;92754.03;5081597;28;20052;-75
2023/04/20 00:08:21;;;;;;;15.23;11.80;;;;;;;9.15;100.00;92756.16;5077674;28;20477;-75
2023/04/20 00:10:49;;;;;;;18.00;12.32;;;;;;;9.13;100.00;92756.38;5074747;28;20072;-75
2023/04/20 00:13:16;;;;;;;14.48;11.65;;;;;;;9.13;100.00;92758.94;5077327;28;20052;-74
2023/04/20 00:15:43;;;;;;;15.93;12.52;;;;;;;9.01;100.00;92746.03;5080808;28;20041;-74
2023/04/20 00:18:09;;;;;;;16.25;11.15;;;;;;;8.97;100.00;92760.25;5070286;28;20114;-74
2023/04/20 00:20:37;;;;;;;12.52;10.48;;;;;;;8.93;100.00;92759.09;5078459;28;20044;-74
2023/04/20 00:23:04;;;;;;;12.13;10.15;;;;;;;8.86;100.00;92758.38;5073097;28;20044;-75
2023/04/20 00:25:31;;;;;;;14.27;11.30;;;;;;;8.89;100.00;92747.72;5075819;28;20052;-75
2023/04/20 00:27:59;;;;;;;15.35;10.85;;;;;;;8.89;100.00;92748.50;5071854;28;20059;-74
2023/04/20 00:30:26;;;;;;;23.20;14.77;;;;;;;8.92;100.00;92744.72;5076799;28;20121;-74
2023/04/20 00:32:53;;;;;;;18.30;13.82;;;;;;;8.95;100.00;92739.97;5074035;28;20569;-74
2023/04/20 00:35:19;;;;;;;18.00;13.18;;;;;;;9.00;100.00;92739.34;5084567;28;20052;-75
2023/04/20 00:37:46;;;;;;;19.73;13.25;;;;;;;9.01;100.00;92737.56;5087569;28;20048;-74
2023/04/20 00:40:13;;;;;;;14.80;11.93;;;;;;;9.00;100.00;92733.44;5087186;28;20044;-74
2023/04/20 00:42:40;;;;;;;15.32;11.88;;;;;;;8.97;100.00;92726.19;5086788;28;20105;-73
2023/04/20 00:45:09;;;;;;;14.32;11.35;;;;;;;9.04;100.00;92735.38;5087526;28;20044;-73
2023/04/20 00:47:36;;;;;;;15.25;11.32;;;;;;;9.03;100.00;92735.59;5086890;28;20546;-75
2023/04/20 00:50:04;;;;;;;14.57;10.73;;;;;;;9.05;100.00;92731.81;5087321;28;20562;-74
2023/04/20 00:52:32;;;;;;;14.18;11.73;;;;;;;9.07;100.00;92731.59;5086125;28;20093;-74
2023/04/20 00:54:58;;;;;;;14.27;11.15;;;;;;;9.09;100.00;92739.84;5087399;28;20426;-74
2023/04/20 00:57:27;;;;;;;13.82;10.80;;;;;;;9.07;100.00;92729.03;5086605;28;20048;-74
2023/04/20 00:59:55;;;;;;;14.70;10.90;;;;;;;9.09;100.00;92727.06;5087155;28;20563;-74
2023/04/20 01:02:23;;;;;;;13.75;11.32;;;;;;;9.12;100.00;92730.97;5087080;28;20957;-74
2023/04/20 01:04:49;;;;;;;12.15;10.70;;;;;;;9.12;100.00;92725.84;5087152;28;20056;-74
2023/04/20 01:07:16;;;;;;;13.20;10.57;;;;;;;9.12;100.00;92730.97;5087260;28;20079;-74
2023/04/20 01:09:43;;;;;;;14.43;10.70;;;;;;;9.10;100.00;92733.72;5087482;28;20048;-74
2023/04/20 01:12:10;;;;;;;13.23;10.82;;;;;;;9.09;100.00;92724.47;5086715;28;20560;-74
2023/04/20 01:14:37;;;;;;;13.88;11.63;;;;;;;9.08;100.00;92725.50;5087311;28;20048;-74
2023/04/20 01:17:04;;;;;;;15.45;12.18;;;;;;;9.04;100.00;92722.56;5086992;28;20473;-74
2023/04/20 01:19:33;;;;;;;13.20;11.07;;;;;;;9.09;100.00;92722.69;5087044;28;20070;-74
2023/04/20 01:21:59;;;;;;;14.45;11.02;;;;;;;9.08;100.00;92712.69;5086668;28;20833;-74
2023/04/20 01:24:27;;;;;;;14.43;10.05;;;;;;;9.00;100.00;92706.03;5087417;28;20052;-74
2023/04/20 01:26:55;;;;;;;14.02;10.00;;;;;;;9.09;100.00;92717.56;5086592;28;20048;-74
2023/04/20 01:29:21;;;;;;;12.63;10.05;;;;;;;9.13;100.00;92717.16;5087072;28;20048;-74
2023/04/20 01:31:48;;;;;;;10.77;9.63;;;;;;;8.88;100.00;92677.00;5087073;28;20076;-73
2023/04/20 01:34:16;;;;;;;12.63;9.25;;;;;;;9.09;100.00;92724.47;5086909;28;20590;-74
2023/04/20 01:36:43;;;;;;;13.75;10.05;;;;;;;9.06;100.00;92727.47;5086989;28;20044;-74
2023/04/20 01:39:10;;;;;;;15.23;11.25;;;;;;;9.04;100.00;92717.44;5086464;28;20488;-74
2023/04/20 01:41:38;;;;;;;14.90;11.32;;;;;;;8.98;100.00;92708.03;5086694;28;20496;-74
2023/04/20 01:44:05;;;;;;;26.00;16.40;;;;;;;8.88;100.00;92723.88;5086869;28;20040;-74
2023/04/20 01:46:32;;;;;;;17.63;12.30;;;;;;;8.61;100.00;92708.75;5086700;28;20048;-74
2023/04/20 01:48:58;;;;;;;13.70;10.93;;;;;;;8.33;100.00;92721.94;5086630;28;20550;-74
2023/04/20 01:51:26;;;;;;;20.45;11.65;;;;;;;8.25;100.00;92721.16;5087123;28;20044;-74
2023/04/20 01:53:53;;;;;;;20.05;13.05;;;;;;;8.39;100.00;92700.63;5086916;28;20130;-74
2023/04/20 01:56:19;;;;;;;17.88;11.80;;;;;;;8.55;100.00;92712.94;5085984;28;20093;-74
2023/04/20 01:58:47;;;;;;;16.63;11.95;;;;;;;8.63;100.00;92699.09;5086377;28;20084;-74
2023/04/20 02:01:14;;;;;;;15.27;12.00;;;;;;;8.73;100.00;92710.63;5086611;28;20097;-75
2023/04/20 02:03:41;;;;;;;14.40;11.93;;;;;;;8.73;100.00;92688.34;5087538;28;20098;-75
2023/04/20 02:06:08;;;;;;;15.30;11.55;;;;;;;8.88;100.00;92707.75;5090285;28;20394;-75
2023/04/20 02:08:35;;;;;;;13.90;10.77;;;;;;;8.76;100.00;92693.06;5089963;28;20078;-74
2023/04/20 02:11:02;;;;;;;15.63;11.68;;;;;;;8.89;100.00;92710.06;5089735;28;20581;-75
2023/04/20 02:13:28;;;;;;;19.60;11.50;;;;;;;8.87;100.00;92703.59;5090228;28;20052;-75
2023/04/20 02:15:56;;;;;;;16.40;11.50;;;;;;;8.90;100.00;92711.66;5090245;28;20044;-74
2023/04/20 02:18:24;;;;;;;15.43;11.68;;;;;;;8.91;100.00;92708.09;5089317;28;20048;-74
2023/04/20 02:20:51;;;;;;;13.60;11.07;;;;;;;8.87;100.00;92706.16;5089888;28;20142;-74
2023/04/20 02:23:18;;;;;;;17.88;11.68;;;;;;;8.80;100.00;92703.69;5089748;28;20453;-74
2023/04/20 02:25:45;;;;;;;17.38;12.57;;;;;;;8.72;100.00;92706.50;5090050;28;20043;-74
2023/04/20 02:28:12;;;;;;;15.73;11.73;;;;;;;8.73;100.00;92705.50;5089507;28;20044;-74
2023/04/20 02:30:38;;;;;;;16.75;12.02;;;;;;;8.77;100.00;92707.44;5089618;28;20546;-74
2023/04/20 02:33:07;;;;;;;17.27;12.10;;;;;;;8.69;100.00;92693.13;5089245;28;20051;-73
2023/04/20 02:35:33;;;;;;;16.40;12.05;;;;;;;8.78;100.00;92703.88;5089923;28;20051;-73
2023/04/20 02:38:00;;;;;;;15.82;12.23;;;;;;;8.80;100.00;92698.56;5088640;28;20646;-73
2023/04/20 02:40:27;;;;;;;15.27;11.10;;;;;;;8.80;100.00;92706.25;5089706;28;20109;-73
2023/04/20 02:42:53;;;;;;;15.75;11.65;;;;;;;8.81;100.00;92702.69;5089449;28;20071;-73
2023/04/20 02:45:20;;;;;;;18.77;12.77;;;;;;;8.86;100.00;92707.16;5089536;28;20051;-74
2023/04/20 02:47:47;;;;;;;16.35;12.35;;;;;;;8.88;100.00;92705.19;5089662;28;20413;-74
2023/04/20 02:50:15;;;;;;;17.02;11.68;;;;;;;8.85;100.00;92700.47;5089416;28;20052;-74
2023/04/20 02:52:42;;;;;;;16.63;11.70;;;;;;;8.80;100.00;92689.06;5088486;28;20087;-74
2023/04/20 02:55:09;;;;;;;15.68;11.82;;;;;;;8.81;100.00;92689.88;5089481;28;20044;-73
2023/04/20 02:57:35;;;;;;;18.63;11.25;;;;;;;8.91;100.00;92702.19;5088952;28;20076;-74
2023/04/20 03:00:02;;;;;;;16.02;11.90;;;;;;;8.91;100.00;92705.53;5089239;28;20097;-74
2023/04/20 03:02:29;;;;;;;14.10;11.32;;;;;;;8.88;100.00;92700.06;5089200;28;20044;-73
2023/04/20 03:04:55;;;;;;;18.50;11.23;;;;;;;8.94;100.00;92704.34;5089149;28;20409;-73
2023/04/20 03:07:23;;;;;;;15.38;10.82;;;;;;;8.88;100.00;92708.50;5088633;28;20093;-74
2023/04/20 03:09:50;;;;;;;14.82;11.30;;;;;;;8.78;100.00;92697.97;5089220;28;20048;-74
2023/04/20 03:12:17;;;;;;;16.98;11.38;;;;;;;8.90;100.00;92716.78;5088777;28;20102;-74
2023/04/20 03:14:44;;;;;;;15.93;11.40;;;;;;;8.87;100.00;92711.28;5087933;28;20102;-73
2023/04/20 03:17:11;;;;;;;14.77;11.75;;;;;;;8.90;100.00;92718.56;5089043;28;20052;-74
2023/04/20 03:19:38;;;;;;;14.23;11.43;;;;;;;8.88;100.00;92705.94;5088903;28;20040;-74
2023/04/20 03:22:05;;;;;;;18.10;12.05;;;;;;;8.88;100.00;92705.94;5062399;28;20044;-74
2023/04/20 03:24:34;;;;;;;15.15;11.30;;;;;;;8.77;100.00;92697.19;5088708;28;20040;-74
2023/04/20 03:27:00;;;;;;;15.15;11.77;;;;;;;8.85;100.00;92714.06;5088644;28;20417;-74
2023/04/20 03:29:27;;;;;;;16.15;12.23;;;;;;;8.84;100.00;92704.78;5088460;28;20097;-73
2023/04/20 03:31:54;;;;;;;17.95;11.95;;;;;;;8.84;100.00;92711.72;5088926;28;21369;-73
2023/04/20 03:34:21;;;;;;;15.77;11.90;;;;;;;8.75;100.00;92706.84;5088173;28;20458;-74
2023/04/20 03:36:47;;;;;;;14.40;11.60;;;;;;;8.80;100.00;92708.78;5088342;28;20520;-74
2023/04/20 03:39:14;;;;;;;15.40;11.70;;;;;;;8.78;100.00;92713.31;5087352;28;20455;-74
2023/04/20 03:41:42;;;;;;;18.92;13.02;;;;;;;8.70;100.00;92701.56;5087831;28;20044;-74
2023/04/20 03:44:09;;;;;;;14.45;12.57;;;;;;;8.63;100.00;92695.72;5088725;28;20101;-74
2023/04/20 03:46:36;;;;;;;18.83;12.75;;;;;;;8.63;100.00;92711.09;5088446;28;20325;-74
2023/04/20 03:49:02;;;;;;;19.13;12.35;;;;;;;8.54;100.00;92711.38;5088061;28;20417;-74
2023/04/20 03:51:30;;;;;;;17.48;13.15;;;;;;;8.53;100.00;92712.34;5088357;28;20128;-74
2023/04/20 03:53:56;;;;;;;19.30;13.70;;;;;;;8.50;100.00;92710.19;5087980;28;20102;-74
2023/04/20 03:56:25;;;;;;;17.65;12.88;;;;;;;8.53;100.00;92722.56;5088129;28;20485;-74
2023/04/20 03:58:53;;;;;;;16.83;13.15;;;;;;;8.57;100.00;92714.50;5087998;28;20051;-74
2023/04/20 04:01:20;;;;;;;15.30;11.48;;;;;;;8.59;100.00;92726.09;5087954;28;20101;-74
2023/04/20 04:03:47;;;;;;;15.40;11.63;;;;;;;8.57;100.00;92717.84;5088120;28;20040;-74
2023/04/20 04:06:13;;;;;;;14.82;11.20;;;;;;;8.60;100.00;92725.09;5087566;28;20124;-75
2023/04/20 04:08:40;;;;;;;17.05;11.40;;;;;;;8.59;100.00;92718.41;5088017;28;20096;-75
2023/04/20 04:11:07;;;;;;;17.42;12.35;;;;;;;8.62;100.00;92723.13;5087685;28;20699;-75
2023/04/20 04:13:33;;;;;;;19.35;12.32;;;;;;;8.58;100.00;92728.84;5087721;28;20093;-75
2023/04/20 04:16:01;;;;;;;23.55;13.27;;;;;;;8.61;100.00;92723.34;5087533;28;20101;-74
2023/04/20 04:18:31;;;;;;;16.05;11.65;;;;;;;8.54;100.00;92710.56;5087058;28;20105;-75
2023/04/20 04:20:58;;;;;;;20.20;12.48;;;;;;;8.57;100.00;92720.41;5087010;28;20051;-75
2023/04/20 04:23:25;;;;;;;16.85;13.27;;;;;;;8.46;100.00;92711.59;5073263;28;20090;-75
2023/04/20 04:25:51;;;;;;;18.63;13.27;;;;;;;8.51;100.00;92727.09;5078509;28;20048;-75
2023/04/20 04:28:18;;;;;;;19.95;13.55;;;;;;;8.48;100.00;92734.41;5087256;28;20493;-74
2023/04/20 04:30:46;;;;;;;21.08;13.30;;;;;;;8.44;100.00;92721.25;5087598;28;20409;-75
2023/04/20 04:33:17;;;;;;;17.05;13.32;;;;;;;8.46;100.00;92715.94;5086904;28;20056;-74
2023/04/20 04:35:44;;;;;;;16.92;13.63;;;;;;;8.51;100.00;92713.50;5087453;28;20055;-74
2023/04/20 04:38:12;;;;;;;15.32;12.57;;;;;;;8.55;100.00;92717.25;5087459;28;20486;-74
2023/04/20 04:40:38;;;;;;;24.58;15.88;;;;;;;8.66;100.00;92726.06;5088150;28;20044;-74
2023/04/20 04:43:06;;;;;;;25.48;18.10;;;;;;;8.72;100.00;92740.56;5074146;28;20044;-74
2023/04/20 04:45:33;;;;;;;22.90;15.93;;;;;;;8.76;100.00;92743.50;5087784;28;20040;-74
2023/04/20 04:47:59;;;;;;;26.33;16.60;;;;;;;8.80;100.00;92747.22;5086805;28;20093;-74
2023/04/20 04:50:27;;;;;;;22.45;16.67;;;;;;;8.75;100.00;92729.91;5083401;28;20505;-74
2023/04/20 04:52:54;;;;;;;21.77;15.50;;;;;;;8.88;100.00;92752.06;5074430;28;20097;-74
2023/04/20 04:55:21;;;;;;;21.08;15.48;;;;;;;8.91;100.00;92753.41;5084490;28;20044;-74
2023/04/20 04:57:48;;;;;;;20.13;16.50;;;;;;;8.94;100.00;92751.22;5075925;28;20043;-74
2023/04/20 05:00:15;;;;;;;19.13;14.68;;;;;;;8.95;100.00;92747.66;5087204;28;20124;-74
2023/04/20 05:02:42;;;;;;;21.15;16.42;;;;;;;9.03;100.00;92756.06;5086646;28;20048;-74
2023/04/20 05:05:09;;;;;;;18.80;14.77;;;;;;;9.05;100.00;92749.75;5086388;28;20075;-74
2023/04/20 05:07:38;;;;;;;24.13;15.75;;;;;;;9.06;100.00;92750.53;5087283;28;20527;-74
2023/04/20 05:10:07;;;;;;;19.92;14.30;;;;;;;9.03;100.00;92741.47;5086937;28;20044;-75
2023/04/20 05:12:35;;;;;;;19.75;14.65;;;;;;;9.13;100.00;92747.91;5087127;28;20136;-74
2023/04/20 05:15:01;;;;;;;20.92;15.93;;;;;;;9.14;100.00;92752.81;5086830;28;20059;-74
2023/04/20 05:17:28;;;;;;;23.30;16.27;;;;;;;9.19;100.00;92752.19;5086493;28;20052;-75
2023/04/20 05:19:55;;;;;;;19.83;15.02;;;;;;;9.23;100.00;92759.22;5086501;28;20133;-74
2023/04/20 05:22:21;;;;;;;20.10;15.10;;;;;;;9.27;100.00;92758.81;5086936;28;20492;-73
2023/04/20 05:24:49;;;;;;;22.52;14.65;;;;;;;9.17;100.00;92744.69;5086782;28;20148;-74
2023/04/20 05:27:16;;;;;;;21.50;15.38;;;;;;;9.30;100.00;92758.41;5086946;28;20055;-73
2023/04/20 05:29:43;;;;;;;17.48;13.05;;;;;;;9.30;100.00;92760.97;5086363;28;20511;-73
2023/04/20 05:32:09;;;;;;;17.40;13.90;;;;;;;9.27;100.00;92762.16;5086630;28;20051;-73
2023/04/20 05:34:36;;;;;;;20.13;13.98;;;;;;;9.20;100.00;92751.19;5086703;28;20129;-74
2023/04/20 05:37:04;;;;;;;22.13;13.23;;;;;;;9.23;100.00;92756.66;5086759;28;20048;-74
2023/04/20 05:39:31;;;;;;;20.75;12.38;;;;;;;9.28;100.00;92766.28;5085896;28;20566;-74
2023/04/20 05:41:59;;;;;;;22.67;14.23;;;;;;;9.26;100.00;92754.69;5081167;28;20072;-73
2023/04/20 05:44:26;;;;;;;17.27;13.45;;;;;;;9.37;100.00;92764.22;5090582;28;20044;-74
2023/04/20 05:46:52;;;;;;;18.75;12.32;;;;;;;9.38;100.00;92768.34;5090569;28;20101;-74
2023/04/20 05:49:19;;;;;;;15.40;11.95;;;;;;;9.38;100.00;92763.22;5076993;28;20545;-74
2023/04/20 05:51:46;;;;;;;18.15;11.50;;;;;;;9.40;100.00;92761.22;5090806;28;20287;-75
2023/04/20 05:54:12;;;;;;;14.02;10.93;;;;;;;9.43;100.00;92771.06;5090706;28;20087;-75
2023/04/20 05:56:39;;;;;;;12.70;10.30;;;;;;;9.48;100.00;92765.28;5090879;28;20469;-75
2023/04/20 05:59:08;;;;;;;14.88;10.80;;;;;;;9.45;100.00;92769.06;5090400;28;20180;-74
2023/04/20 06:01:35;;;;;;;16.20;11.80;;;;;;;9.46;100.00;92773.22;5090007;28;20052;-74
2023/04/20 06:04:01;;;;;;;15.88;11.50;;;;;;;9.48;100.00;92773.78;5090373;28;20060;-74
2023/04/20 06:06:28;;;;;;;18.73;11.30;;;;;;;9.49;100.00;92777.09;5090566;28;20439;-74
2023/04/20 06:08:56;;;;;;;15.95;11.52;;;;;;;9.47;100.00;92768.84;5090052;28;20102;-74
2023/04/20 06:11:23;;;;;;;17.15;12.35;;;;;;;9.53;100.00;92774.94;5090093;28;20443;-73
2023/04/20 06:13:50;;;;;;;19.75;12.38;;;;;;;9.49;100.00;92770.22;5089825;28;20052;-74
2023/04/20 06:16:18;;;;;;;22.88;13.25;;;;;;;9.53;100.00;92774.94;5089718;28;20051;-74
2023/04/20 06:18:45;;;;;;;19.75;11.75;;;;;;;9.56;100.00;92775.28;5089556;28;20048;-74
2023/04/20 06:21:11;;;;;;;21.25;12.32;;;;;;;9.52;100.00;92771.56;5090484;28;20534;-73
2023/04/20 06:23:38;;;;;;;25.88;12.98;;;;;;;9.54;100.00;92773.91;5090164;28;20079;-74
2023/04/20 06:26:07;;;;;;;27.55;13.02;;;;;;;9.56;100.00;92777.84;5079498;28;20079;-74
2023/04/20 06:28:34;;;;;;;25.02;12.88;;;;;;;9.57;100.00;92779.41;5090035;28;20109;-73
2023/04/20 06:31:01;;;;;;;24.40;12.80;;;;;;;9.49;100.00;92762.53;5089802;28;20530;-74
2023/04/20 06:33:29;;;;;;;21.65;12.88;;;;;;;9.65;100.00;92783.47;5089356;28;20452;-74
2023/04/20 06:35:55;;;;;;;24.20;12.98;;;;;;;9.70;100.00;92775.13;5079374;28;20080;-74
2023/04/20 06:38:25;;;;;;;20.08;12.68;;;;;;;9.60;100.00;92767.94;5086422;28;20549;-74
2023/04/20 06:40:52;;;;;;;26.50;14.40;;;;;;;9.72;100.00;92770.56;5089653;28;20052;-74
2023/04/20 06:43:19;;;;;;;29.45;13.43;;;;;;;9.76;100.00;92774.25;5088837;28;20485;-74
2023/04/20 06:45:45;;;;;;;24.10;13.27;;;;;;;9.59;100.00;92749.19;5089675;28;20044;-74
2023/04/20 06:48:12;;;;;;;24.90;13.27;;;;;;;9.80;100.00;92783.09;5088955;28;20084;-74
2023/04/20 06:50:40;;;;;;;32.13;14.23;;;;;;;9.86;100.00;92778.91;5089467;28;20477;-74
2023/04/20 06:53:07;;;;;;;28.00;13.70;;;;;;;9.86;100.00;92779.66;5088890;28;20565;-74
2023/04/20 06:55:34;;;;;;;25.02;13.55;;;;;;;9.83;100.00;92781.88;5089686;28;20104;-74
2023/04/20 06:58:00;;;;;;;24.88;13.52;;;;;;;9.79;100.00;92784.09;5089109;28;20125;-74
2023/04/20 07:00:27;;;;;;;29.88;13.25;;;;;;;9.82;100.00;92796.47;5088994;28;20048;-74
2023/04/20 07:02:54;;;;;;;27.38;13.20;;;;;;;9.80;100.00;92788.22;5085933;28;20048;-73
2023/04/20 07:05:20;;;;;;;21.38;14.43;;;;;;;9.83;100.00;92800.63;5081435;28;20121;-73
2023/04/20 07:07:49;;;;;;;22.77;12.50;;;;;;;9.85;100.00;92806.31;5089027;28;20385;-72
2023/04/20 07:10:16;;;;;;;20.15;14.57;;;;;;;9.85;100.00;92792.69;5089129;28;20044;-72
2023/04/20 07:12:43;;;;;;;28.95;14.80;;;;;;;9.84;100.00;92811.66;5088456;28;20598;-72
2023/04/20 07:15:10;;;;;;;29.60;15.25;;;;;;;9.81;100.00;92804.41;5088671;28;20455;-72
2023/04/20 07:17:37;;;;;;;24.38;16.15;;;;;;;9.76;100.00;92803.25;5088652;28;20113;-72
2023/04/20 07:20:07;;;;;;;27.75;16.85;;;;;;;9.73;100.00;92801.13;5088778;28;20076;-72
2023/04/20 07:22:33;;;;;;;25.48;16.92;;;;;;;9.68;100.00;92807.91;5089057;28;20056;-72
2023/04/20 07:25:03;;;;;;;24.00;15.27;;;;;;;9.64;100.00;92804.97;5088526;28;20048;-72
2023/04/20 07:27:30;;;;;;;27.65;16.45;;;;;;;9.57;100.00;92799.13;5088742;28;20089;-72
2023/04/20 07:29:58;;;;;;;30.27;17.58;;;;;;;9.66;100.00;92805.53;5088233;28;20036;-72
2023/04/20 07:32:24;;;;;;;26.67;17.38;;;;;;;9.60;100.00;92807.19;5076544;28;20055;-72
2023/04/20 07:34:51;;;;;;;24.45;15.60;;;;;;;9.55;100.00;92790.88;5087157;28;20871;-72
2023/04/20 07:37:18;;;;;;;27.45;16.27;;;;;;;9.65;100.00;92813.44;5088502;28;20454;-72
2023/04/20 07:39:45;;;;;;;25.73;16.20;;;;;;;9.66;100.00;92805.53;5087871;28;20179;-72
2023/04/20 07:42:13;;;;;;;23.70;15.57;;;;;;;9.61;100.00;92802.84;5088340;28;20036;-72
2023/04/20 07:44:39;;;;;;;23.52;15.50;;;;;;;9.68;100.00;92806.09;5087518;28;20052;-72
2023/04/20 07:47:06;;;;;;;26.20;17.90;;;;;;;9.69;100.00;92812.03;5086059;28;20048;-72
2023/04/20 07:49:36;;;;;;;26.65;18.23;;;;;;;9.68;100.00;92806.09;5067507;28;20469;-73
2023/04/20 07:52:03;;;;;;;24.20;16.55;;;;;;;9.64;100.00;92804.97;5079317;28;20044;-72
2023/04/20 07:54:31;;;;;;;22.42;17.13;;;;;;;9.69;100.00;92809.47;5085414;28;20044;-73
2023/04/20 07:56:57;;;;;;;24.15;16.85;;;;;;;9.69;100.00;92804.34;5073841;28;20488;-72
2023/04/20 07:59:26;;;;;;;25.75;18.33;;;;;;;9.59;100.00;92779.97;5087863;28;20044;-72
2023/04/20 08:01:55;;;;;;;24.67;17.02;;;;;;;9.79;100.00;92814.09;5070398;28;20442;-72
2023/04/20 08:04:22;;;;;;;24.92;16.88;;;;;;;9.81;100.00;92818.00;5088050;28;20074;-73
2023/04/20 08:06:48;;;;;;;23.40;16.88;;;;;;;9.83;100.00;92820.38;5087982;28;20106;-73
2023/04/20 08:09:15;;;;;;;26.75;16.90;;;;;;;9.82;100.00;92814.44;5085511;28;20047;-73
2023/04/20 08:11:44;;;;;;;21.33;15.77;;;;;;;9.86;100.00;92817.38;5087277;28;20044;-73
2023/04/20 08:14:11;;;;;;;23.20;16.42;;;;;;;9.71;100.00;92789.50;5088102;28;20129;-73
2023/04/20 08:16:39;;;;;;;23.60;16.90;;;;;;;9.96;100.00;92820.19;5087564;28;20553;-72
2023/04/20 08:19:09;;;;;;;19.00;15.63;;;;;;;10.02;100.00;92811.66;5087628;28;20113;-72
2023/04/20 08:21:35;;;;;;;20.75;15.25;;;;;;;10.09;100.00;92810.81;5088163;28;20056;-72
2023/04/20 08:24:02;;;;;;;21.52;14.73;;;;;;;10.19;100.00;92807.72;5087893;28;20128;-73
2023/04/20 08:26:29;;;;;;;22.55;16.25;;;;;;;10.23;100.00;92804.50;5086918;28;20105;-73
2023/04/20 08:28:55;;;;;;;18.20;14.48;;;;;;;10.34;100.00;92808.13;5072391;28;20046;-72
2023/04/20 08:31:22;;;;;;;22.35;15.98;;;;;;;10.34;100.00;92800.41;5066028;28;20071;-72
2023/04/20 08:33:50;;;;;;;24.48;15.32;;;;;;;10.47;100.00;92809.75;5067456;28;20125;-72
2023/04/20 08:36:17;;;;;;;20.55;15.38;;;;;;;10.60;100.00;92808.00;5084604;28;20044;-72
2023/04/20 08:38:44;;;;;;;19.73;14.65;;;;;;;10.52;100.00;92803.97;5081801;28;20494;-73
2023/04/20 08:41:12;;;;;;;20.67;14.27;;;;;;;10.52;100.00;92809.09;5058806;28;20052;-73
2023/04/20 08:43:39;;;;;;;20.73;14.25;;;;;;;10.60;100.00;92813.91;5059897;28;20584;-73
2023/04/20 08:46:07;;;;;;;20.23;15.35;;;;;;;10.56;100.00;92782.75;5068329;28;20098;-73
2023/04/20 08:48:35;;;;;;;21.17;15.40;;;;;;;10.70;100.00;92808.25;5068312;28;20907;-73
2023/04/20 08:51:08;;;;;;;22.33;15.18;;;;;;;10.72;100.00;92802.88;5074412;28;20479;-73
2023/04/20 08:53:34;;;;;;;19.38;14.25;;;;;;;10.82;100.00;92810.84;5081541;28;20051;-74
2023/04/20 08:56:02;;;;;;;20.63;14.30;;;;;;;10.90;100.00;92809.72;5083748;28;20078;-73
2023/04/20 08:58:32;;;;;;;20.23;14.85;;;;;;;10.98;100.00;92809.41;5088406;28;20458;-74
2023/04/20 09:01:00;;;;;;;20.38;15.13;;;;;;;10.99;100.00;92805.03;5087906;28;20456;-73
2023/04/20 09:03:38;;;;;;;22.02;15.35;;;;;;;10.51;100.00;92805.72;5086872;28;20039;-73
2023/04/20 09:06:16;;;;;;;21.48;15.77;;;;;;;10.68;100.00;92805.91;5087296;28;20078;-74
2023/04/20 09:08:48;;;;;;;24.02;16.38;;;;;;;10.82;100.00;92810.84;5087604;28;20047;-74
2023/04/20 09:11:24;;;;;;;22.52;15.93;;;;;;;10.88;100.00;92806.59;5081215;28;20589;-73
2023/04/20 09:14:01;;;;;;;23.00;15.63;;;;;;;10.86;100.00;92801.69;5074886;28;20047;-73
2023/04/20 09:16:29;;;;;;;21.00;15.95;;;;;;;10.83;100.00;92782.34;5091750;28;20879;-73
2023/04/20 09:18:56;;;;;;;24.42;16.48;;;;;;;11.06;100.00;92796.22;5091658;28;20676;-73
2023/04/20 09:21:26;;;;;;;24.63;17.10;;;;;;;11.25;100.00;92803.06;5090124;28;20124;-73
2023/04/20 09:23:58;;;;;;;28.23;15.80;;;;;;;11.28;100.00;92805.97;5070893;28;20123;-73
2023/04/20 09:26:25;;;;;;;28.13;14.98;;;;;;;11.20;100.00;92804.50;5084659;28;20052;-73
2023/04/20 09:28:52;;;;;;;27.17;15.68;;;;;;;11.20;100.00;92803.75;5080191;28;20523;-73
2023/04/20 09:31:20;;;;;;;27.95;16.33;;;;;;;10.91;100.00;92804.38;5091319;28;20040;-73
2023/04/20 09:33:56;;;;;;;24.40;15.25;;;;;;;10.50;100.00;92799.03;5091514;28;20048;-73
2023/04/20 09:36:22;;;;;;;;;;;;;;;10.49;100.00;92799.25;5090942;28;20450;-73
2023/04/20 09:39:02;;;;;;;25.55;14.25;;;;;;;10.29;100.00;92797.72;5082587;28;19924;-73
2023/04/20 09:41:30;;;;;;;26.60;15.35;;;;;;;10.29;100.00;92798.47;5091127;28;20044;-73
2023/04/20 09:43:57;;;;;;;30.35;14.55;;;;;;;10.38;100.00;92804.09;5090349;28;20238;-73
2023/04/20 09:46:27;;;;;;;25.25;15.60;;;;;;;10.48;100.00;92806.19;5071345;28;20478;-73
2023/04/20 09:48:54;;;;;;;28.05;16.50;;;;;;;10.75;100.00;92805.00;5068596;28;20557;-73
2023/04/20 09:51:22;;;;;;;31.08;16.35;;;;;;;11.01;100.00;92798.69;5081451;28;20082;-73
2023/04/20 09:53:50;;;;;;;25.35;15.88;;;;;;;11.33;100.00;92795.00;5090249;28;20493;-73
2023/04/20 09:56:19;;;;;;;25.40;16.58;;;;;;;11.74;100.00;92797.66;5089958;28;20052;-73
2023/04/20 09:58:47;;;;;;;23.58;15.40;;;;;;;12.08;100.00;92794.47;5074377;28;20113;-73
2023/04/20 10:01:14;;;;;;;21.83;13.35;;;;;;;12.47;100.00;92781.78;5090935;28;20040;-73
2023/04/20 10:03:41;;;;;;;22.92;14.80;;;;;;;12.85;100.00;92789.84;5090014;28;20573;-73
2023/04/20 10:06:18;;;;;;;22.48;13.02;;;;;;;12.90;98.33;92789.16;5090099;28;20048;-72
2023/04/20 10:08:46;;;;;;;18.05;11.02;;;;;;;13.08;96.03;92791.50;5089845;28;20133;-73
2023/04/20 10:11:36;;;;;;;21.70;11.43;;;;;;;13.16;92.96;92792.91;5088970;28;20098;-73
2023/04/20 10:14:16;;;;;;;27.45;13.02;;;;;;;13.06;92.38;92790.94;5080975;28;20814;-76
2023/04/20 10:16:43;;;;;;;25.10;12.52;;;;;;;13.14;94.27;92787.19;5090076;28;20044;-73
2023/04/20 10:19:10;;;;;;;27.33;13.57;;;;;;;13.56;95.28;92777.50;5089663;28;20101;-73
2023/04/20 10:21:46;;;;;;;23.83;12.95;;;;;;;13.67;91.92;92771.44;5088035;28;20052;-73
2023/04/20 10:24:14;;;;;;;28.13;14.70;;;;;;;13.94;90.43;92786.22;5089219;28;20048;-73
2023/04/20 10:26:43;;;;;;;22.38;13.68;;;;;;;14.19;88.98;92776.38;5089756;28;20048;-73
2023/04/20 10:29:11;;;;;;;29.38;13.45;;;;;;;14.34;89.55;92776.53;5089886;28;20044;-73
2023/04/20 10:31:38;;;;;;;20.90;13.35;;;;;;;14.36;88.87;92755.63;5089976;28;20446;-73
2023/04/20 10:34:06;;;;;;;20.65;11.82;;;;;;;14.69;86.46;92771.97;5076863;28;20101;-73
2023/04/20 10:36:35;;;;;;;18.83;9.80;;;;;;;14.45;80.61;92774.06;5088109;28;20044;-73
2023/04/20 10:39:14;;;;;;;18.73;10.73;;;;;;;13.57;84.93;92779.03;5089269;28;20043;-73
2023/04/20 10:41:53;;;;;;;16.10;9.80;;;;;;;13.62;86.09;92758.47;5089742;28;20040;-73
2023/04/20 10:44:20;;;;;;;18.63;12.23;;;;;;;13.96;88.31;92773.84;5089616;28;20051;-73
2023/04/20 10:46:49;;;;;;;21.63;11.73;;;;;;;14.10;88.26;92769.06;5076524;28;20055;-73
2023/04/20 10:49:16;;;;;;;21.08;12.45;;;;;;;14.07;86.77;92779.13;5089771;28;20177;-73
2023/04/20 10:51:47;;;;;;;19.15;11.73;;;;;;;13.96;88.27;92771.25;5083256;28;20047;-74
2023/04/20 10:54:13;;;;;;;20.08;12.40;;;;;;;13.95;88.16;92768.91;5082217;28;20048;-74
2023/04/20 10:56:41;;;;;;;18.40;12.10;;;;;;;14.06;87.51;92774.97;5089409;28;20048;-74
2023/04/20 10:59:11;;;;;;;15.95;10.90;;;;;;;13.89;85.91;92776.59;5089266;28;20062;-74
2023/04/20 11:01:38;;;;;;;15.40;10.13;;;;;;;13.84;84.88;92784.28;5081168;28;20189;-73
2023/04/20 11:04:06;;;;;;;13.50;9.52;;;;;;;13.80;83.14;92778.03;5089432;28;20040;-73
2023/04/20 11:06:32;;;;;;;13.48;9.40;;;;;;;13.59;84.33;92775.22;5088672;28;20048;-73
2023/04/20 11:08:59;;;;;;;12.48;8.52;;;;;;;13.48;82.44;92776.84;5088846;28;20117;-74
2023/04/20 11:11:28;;;;;;;13.63;9.75;;;;;;;13.49;85.20;92768.13;5088505;28;20446;-74
2023/04/20 11:14:05;;;;;;;14.52;9.63;;;;;;;13.31;84.63;92770.91;5088640;28;20546;-74
2023/04/20 11:16:34;;;;;;;15.60;10.98;;;;;;;13.42;87.01;92761.53;5088473;28;20060;-74
2023/04/20 11:19:02;;;;;;;16.42;10.20;;;;;;;13.52;85.73;92766.84;5088339;28;20450;-74